Aérodrome :
LOGIN :

S'inscrire | Disclaimer

   EN    FR    IT 

 










Légende :    VFR   VFR Marginal   IFR   IFR Intensif   IFR Très Intensif
Visi : 
Plafond : 
>= 8 km
>= 3000ft
5 à 8 km
1000 à 3000 ft
1500m à 5 km
500 à 1000 ft
800 à 1500m
200 à 500 ft
< 800m
< 200 ft
Symboles :   Orages  Brouillard  Fortes neiges  Fortes précipitations  Vent > 20 kt
SIGMETs :   Divers  Orages  Givrage  Turbulence  Onde Orograph.  Cendres Volcan.







- Altitude de l'aérodrome : 162 ft
- Code IATA : BOD
- Voir les cartes d'approche


LFBD - Bordeaux / Merignac

DERNIER METAR :
  • 221030Z AUTO 03004KT 330V130 9999 BKN042 BKN049 BKN056 22/11 Q1020 NOSIG

METARs EXPIRÉS :
  • 221000Z AUTO 05004KT 330V110 9999 SCT040 SCT047 21/12 Q1020 NOSIG
  • 220930Z AUTO 09003KT 350V130 CAVOK 21/12 Q1020 NOSIG
  • 220900Z AUTO VRB02KT CAVOK 21/12 Q1020 NOSIG
  • 220830Z AUTO VRB01KT CAVOK 20/13 Q1020 NOSIG
  • 220800Z AUTO VRB02KT CAVOK 18/13 Q1020 NOSIG
  • 220730Z AUTO 04003KT 010V070 CAVOK 17/13 Q1020 NOSIG

TAF AMD TAF LFBD
Valide du 22 à 06h jusqu'au 23 à 12h UTC


220635Z 2206/2312 VRB03KT 7000 NSC TX24/2215Z TN10/2206Z
BECMG 2207/2209 CAVOK
ATIS : +33 5 57 92 81 04
Pas de NOTAMs connus pour ce terrain.



MET'MAP, la Météo Aéronautique d'un coup d'oeil ! - Copyright ORBIFLY Décembre 2007 - Disclaimer

ORBIFLY MET'MAP TEAM :

Programmation & Développement : Alexandra Zaïnal
Conception & Développement : Baudouin d'Aumeries
Co-Programmation & Développement : Marc-Olivier Méhu
Soutien technique & logistique : Manuel Goepfert

Contact : metmap@orbifly.com




SOURCES & CREDITS :

   NOAA